Time;durP1;ratioP1;P1;durP2;ratioP2;P2;SDS_P1;SDS_P2;PMS_P1;PMS_P2;Temp;Humidity;BMP_temperature;BMP_pressure;BME280_temperature;BME280_humidity;BME280_pressure;Samples;Min_cycle;Max_cycle;Signal;HPM_P1;HPM_P2
2023/11/05 00:02:16;;;;;;;0.70;0.70;;;;;;;;;;5014419;28;20221;-74
2023/11/05 00:04:44;;;;;;;1.40;0.87;;;;;;;;;;5002145;28;20595;-74
2023/11/05 00:07:09;;;;;;;1.97;0.80;;;;;;;;;;5012437;28;20336;-74
2023/11/05 00:09:35;;;;;;;3.50;1.87;;;;;;;;;;5000164;28;20220;-74
2023/11/05 00:12:00;;;;;;;1.53;1.00;;;;;;;;;;5015875;28;20271;-74
2023/11/05 00:14:28;;;;;;;1.20;0.90;;;;;;;;;;4996879;28;20217;-74
2023/11/05 00:16:54;;;;;;;1.87;1.10;;;;;;;;;;5001870;28;20213;-74
2023/11/05 00:19:19;;;;;;;1.30;0.90;;;;;;;;;;5011330;28;20229;-74
2023/11/05 00:21:47;;;;;;;1.07;1.00;;;;;;;;;;4999783;28;20307;-74
2023/11/05 00:24:16;;;;;;;0.93;0.80;;;;;;;;;;4975736;28;20338;-74
2023/11/05 00:26:42;;;;;;;1.00;0.90;;;;;;;;;;5011769;28;20228;-75
2023/11/05 00:29:14;;;;;;;0.70;0.70;;;;;;;;;;5013995;28;20558;-74
2023/11/05 00:31:45;;;;;;;1.60;0.87;;;;;;;;;;4983578;28;20220;-74
2023/11/05 00:34:10;;;;;;;1.57;0.93;;;;;;;;;;5000191;28;20227;-73
2023/11/05 00:36:38;;;;;;;1.27;1.00;;;;;;;;;;5030728;28;20223;-74
2023/11/05 00:39:04;;;;;;;1.27;1.00;;;;;;;;;;5031784;28;20224;-74
2023/11/05 00:41:32;;;;;;;2.27;1.00;;;;;;;;;;4997869;28;20700;-74
2023/11/05 00:43:57;;;;;;;1.37;1.20;;;;;;;;;;5016221;28;20276;-73
2023/11/05 00:46:23;;;;;;;1.77;1.13;;;;;;;;;;4999983;28;20291;-73
2023/11/05 00:48:48;;;;;;;1.20;1.10;;;;;;;;;;5013550;28;20244;-73
2023/11/05 00:51:19;;;;;;;2.30;1.23;;;;;;;;;;5014456;28;20289;-74
2023/11/05 00:53:49;;;;;;;1.40;1.10;;;;;;;;;;4987707;28;20263;-72
2023/11/05 00:56:14;;;;;;;1.20;1.10;;;;;;;;;;4995883;28;20225;-72
2023/11/05 00:58:45;;;;;;;1.20;1.10;;;;;;;;;;4984168;28;20232;-72
2023/11/05 01:01:13;;;;;;;2.43;1.10;;;;;;;;;;5031484;28;20233;-73
2023/11/05 01:03:38;;;;;;;1.20;1.10;;;;;;;;;;5016483;28;20223;-74
2023/11/05 01:06:07;;;;;;;2.33;1.13;;;;;;;;;;5013823;28;20749;-75
2023/11/05 01:08:35;;;;;;;1.27;1.17;;;;;;;;;;4993999;28;20235;-75
2023/11/05 01:11:05;;;;;;;1.30;1.10;;;;;;;;;;5017328;28;20718;-74
2023/11/05 01:13:35;;;;;;;1.37;1.27;;;;;;;;;;4996067;28;20228;-76
2023/11/05 01:16:04;;;;;;;3.43;1.30;;;;;;;;;;5031483;28;20205;-74
2023/11/05 01:18:30;;;;;;;1.77;1.43;;;;;;;;;;5013210;28;20233;-74
2023/11/05 01:20:56;;;;;;;1.50;1.40;;;;;;;;;;4996530;28;20581;-74
2023/11/05 01:23:21;;;;;;;2.63;1.30;;;;;;;;;;5012267;28;20224;-74
2023/11/05 01:25:52;;;;;;;1.33;1.23;;;;;;;;;;5000234;28;20298;-74
2023/11/05 01:28:17;;;;;;;2.00;1.27;;;;;;;;;;4998070;28;20228;-74
2023/11/05 01:30:53;;;;;;;2.67;1.60;;;;;;;;;;5000615;28;20228;-75
2023/11/05 01:33:21;;;;;;;1.57;1.27;;;;;;;;;;4999138;28;20208;-74
2023/11/05 01:35:47;;;;;;;1.70;1.60;;;;;;;;;;4998693;28;20599;-73
2023/11/05 01:38:15;;;;;;;1.20;1.20;;;;;;;;;;5028961;28;20326;-72
2023/11/05 01:40:42;;;;;;;1.73;1.40;;;;;;;;;;5015037;28;20721;-73
2023/11/05 01:43:10;;;;;;;3.20;1.70;;;;;;;;;;5012774;28;20228;-74
2023/11/05 01:45:36;;;;;;;3.03;1.50;;;;;;;;;;5000016;28;20286;-73
2023/11/05 01:48:01;;;;;;;1.70;1.53;;;;;;;;;;4998330;28;20221;-74
2023/11/05 01:50:31;;;;;;;1.60;1.50;;;;;;;;;;4998786;28;20215;-73
2023/11/05 01:52:58;;;;;;;2.13;1.70;;;;;;;;;;5000935;28;20278;-73
2023/11/05 01:55:23;;;;;;;1.70;1.60;;;;;;;;;;4997129;28;20221;-73
2023/11/05 01:57:52;;;;;;;3.13;1.90;;;;;;;;;;4995166;28;20291;-73
2023/11/05 02:00:22;;;;;;;2.10;1.50;;;;;;;;;;5027045;28;20707;-73
2023/11/05 02:02:52;;;;;;;3.57;1.70;;;;;;;;;;4998952;28;20286;-73
2023/11/05 02:05:18;;;;;;;2.10;1.70;;;;;;;;;;4998274;28;20244;-73
2023/11/05 02:07:43;;;;;;;1.63;1.53;;;;;;;;;;4997374;28;20682;-72
2023/11/05 02:10:09;;;;;;;1.67;1.50;;;;;;;;;;4997269;28;20219;-73
2023/11/05 02:12:35;;;;;;;2.50;1.60;;;;;;;;;;5027347;28;20559;-73
2023/11/05 02:15:05;;;;;;;1.87;1.70;;;;;;;;;;4993339;28;20219;-73
2023/11/05 02:17:33;;;;;;;2.13;1.67;;;;;;;;;;4994582;28;20272;-74
2023/11/05 02:20:05;;;;;;;1.93;1.70;;;;;;;;;;4995152;28;20216;-73
2023/11/05 02:22:36;;;;;;;2.23;1.90;;;;;;;;;;4981805;28;20227;-73
2023/11/05 02:25:01;;;;;;;1.57;1.47;;;;;;;;;;5014232;28;20234;-74
2023/11/05 02:27:30;;;;;;;4.30;2.10;;;;;;;;;;4997495;28;20573;-73
2023/11/05 02:29:56;;;;;;;1.90;1.80;;;;;;;;;;4981570;28;20719;-74
2023/11/05 02:32:21;;;;;;;3.30;1.73;;;;;;;;;;4994577;28;20220;-73
2023/11/05 02:34:48;;;;;;;2.37;1.80;;;;;;;;;;5012885;28;20366;-72
2023/11/05 02:37:16;;;;;;;3.47;2.07;;;;;;;;;;5013547;28;20280;-73
2023/11/05 02:39:41;;;;;;;1.73;1.63;;;;;;;;;;5010324;28;20674;-72
2023/11/05 02:42:10;;;;;;;1.73;1.63;;;;;;;;;;5014713;28;20212;-73
2023/11/05 02:44:38;;;;;;;5.70;1.90;;;;;;;;;;5012920;28;20636;-73
2023/11/05 02:47:05;;;;;;;2.47;1.80;;;;;;;;;;5011159;28;20232;-74
2023/11/05 02:49:33;;;;;;;2.03;1.80;;;;;;;;;;4994358;28;20587;-73
2023/11/05 02:51:59;;;;;;;2.27;1.50;;;;;;;;;;5000029;28;20538;-74
2023/11/05 02:54:29;;;;;;;3.20;1.70;;;;;;;;;;5004160;28;20227;-72
2023/11/05 02:56:57;;;;;;;2.33;1.63;;;;;;;;;;5014565;28;20278;-73
2023/11/05 02:59:27;;;;;;;2.77;1.53;;;;;;;;;;4999243;28;20220;-72
2023/11/05 03:01:57;;;;;;;2.17;1.67;;;;;;;;;;4984475;28;20710;-73
2023/11/05 03:04:25;;;;;;;1.90;1.70;;;;;;;;;;4982203;28;20235;-73
2023/11/05 03:06:58;;;;;;;2.27;1.77;;;;;;;;;;4999903;28;20220;-73
2023/11/05 03:09:24;;;;;;;4.07;1.50;;;;;;;;;;5006177;28;20232;-74
2023/11/05 03:11:53;;;;;;;1.70;1.60;;;;;;;;;;5014818;28;20398;-74
2023/11/05 03:14:19;;;;;;;2.73;2.00;;;;;;;;;;5017426;28;20764;-73
2023/11/05 03:16:47;;;;;;;4.00;1.73;;;;;;;;;;4981447;28;20220;-73
2023/11/05 03:19:18;;;;;;;1.77;1.67;;;;;;;;;;4999155;28;20235;-73
2023/11/05 03:21:46;;;;;;;2.60;1.63;;;;;;;;;;5033375;28;20716;-73
2023/11/05 03:24:12;;;;;;;2.90;1.90;;;;;;;;;;5000294;28;20216;-73
2023/11/05 03:26:40;;;;;;;2.07;1.83;;;;;;;;;;5033813;28;20231;-73
2023/11/05 03:29:11;;;;;;;2.47;1.83;;;;;;;;;;4985295;28;20234;-73
2023/11/05 03:31:39;;;;;;;1.93;1.80;;;;;;;;;;5018369;28;20228;-73
2023/11/05 03:34:05;;;;;;;2.00;1.87;;;;;;;;;;5000256;28;20270;-74
2023/11/05 03:36:35;;;;;;;3.00;2.07;;;;;;;;;;5001693;28;20228;-72
2023/11/05 03:39:03;;;;;;;1.80;1.70;;;;;;;;;;4984767;28;20219;-74
2023/11/05 03:41:28;;;;;;;2.13;1.93;;;;;;;;;;5000988;28;21022;-73
2023/11/05 03:43:59;;;;;;;3.07;2.00;;;;;;;;;;4982146;28;20636;-73
2023/11/05 03:46:29;;;;;;;2.27;2.00;;;;;;;;;;5014786;28;20433;-73
2023/11/05 03:49:00;;;;;;;2.37;2.10;;;;;;;;;;5031179;28;20576;-73
2023/11/05 03:51:25;;;;;;;3.00;1.90;;;;;;;;;;5015834;28;20216;-73
2023/11/05 03:53:58;;;;;;;3.27;2.00;;;;;;;;;;5002608;28;20221;-73
2023/11/05 03:56:23;;;;;;;2.27;1.93;;;;;;;;;;5013453;28;20228;-75
2023/11/05 03:58:51;;;;;;;2.07;1.90;;;;;;;;;;5015046;28;20224;-73
2023/11/05 04:05:08;;;;;;;4.00;1.80;;;;;;;;;;5019744;28;20223;-73
2023/11/05 04:07:34;;;;;;;1.73;1.63;;;;;;;;;;5014707;28;20689;-73
2023/11/05 04:09:59;;;;;;;2.70;1.97;;;;;;;;;;4965078;28;20227;-73
2023/11/05 04:12:25;;;;;;;5.50;2.13;;;;;;;;;;5030570;28;20273;-73
2023/11/05 04:14:51;;;;;;;2.83;2.20;;;;;;;;;;5012293;28;20217;-74
2023/11/05 04:17:16;;;;;;;2.97;2.17;;;;;;;;;;5018165;28;20294;-73
2023/11/05 04:19:44;;;;;;;2.60;2.20;;;;;;;;;;4984077;28;20235;-73
2023/11/05 04:22:09;;;;;;;3.20;1.83;;;;;;;;;;5010664;28;20220;-74
2023/11/05 04:24:35;;;;;;;4.23;2.00;;;;;;;;;;5017901;28;20271;-74
2023/11/05 04:27:00;;;;;;;3.07;1.80;;;;;;;;;;4982365;28;20658;-73
2023/11/05 04:29:26;;;;;;;1.70;1.53;;;;;;;;;;5016743;28;21288;-74
2023/11/05 04:31:57;;;;;;;2.73;1.53;;;;;;;;;;5015124;28;20715;-74
2023/11/05 04:34:27;;;;;;;3.03;1.80;;;;;;;;;;5012755;28;20251;-73
2023/11/05 04:37:00;;;;;;;3.30;1.70;;;;;;;;;;4997809;28;20217;-73
2023/11/05 04:39:30;;;;;;;2.60;1.67;;;;;;;;;;5014843;28;20713;-73
2023/11/05 04:42:01;;;;;;;1.73;1.50;;;;;;;;;;5030926;28;20232;-73
2023/11/05 04:44:32;;;;;;;2.30;1.63;;;;;;;;;;5028824;28;20307;-74
2023/11/05 04:46:57;;;;;;;1.90;1.57;;;;;;;;;;4997850;28;20674;-73
2023/11/05 04:49:26;;;;;;;2.43;1.57;;;;;;;;;;4998902;28;20231;-73
2023/11/05 04:51:54;;;;;;;4.10;1.80;;;;;;;;;;4996792;28;20271;-73
2023/11/05 04:54:19;;;;;;;2.10;1.40;;;;;;;;;;5013502;28;20222;-73
2023/11/05 04:56:45;;;;;;;4.40;1.60;;;;;;;;;;5000416;28;20212;-74
2023/11/05 04:59:13;;;;;;;2.80;1.60;;;;;;;;;;4994323;28;20713;-73
2023/11/05 05:01:40;;;;;;;4.47;1.70;;;;;;;;;;4999142;28;20208;-73
2023/11/05 05:04:10;;;;;;;2.93;1.73;;;;;;;;;;4999492;28;20604;-73
2023/11/05 05:06:35;;;;;;;5.33;1.60;;;;;;;;;;5015228;28;20232;-73
2023/11/05 05:09:03;;;;;;;2.97;1.57;;;;;;;;;;4995076;28;20730;-73
2023/11/05 05:11:29;;;;;;;1.80;1.63;;;;;;;;;;5018809;28;20600;-73
2023/11/05 05:13:57;;;;;;;2.37;1.60;;;;;;;;;;4999993;28;20226;-73
2023/11/05 05:16:22;;;;;;;1.63;1.27;;;;;;;;;;4999173;28;20631;-74
2023/11/05 05:18:48;;;;;;;3.13;1.50;;;;;;;;;;5002963;28;20232;-74
2023/11/05 05:21:13;;;;;;;7.10;1.93;;;;;;;;;;5000145;28;20220;-74
2023/11/05 05:23:44;;;;;;;2.73;1.40;;;;;;;;;;5014067;28;20570;-74
2023/11/05 05:26:17;;;;;;;2.90;1.70;;;;;;;;;;4998524;28;20212;-73
2023/11/05 05:28:48;;;;;;;2.70;1.40;;;;;;;;;;5030681;28;20230;-73
2023/11/05 05:31:15;;;;;;;2.87;1.50;;;;;;;;;;5001281;28;20251;-73
2023/11/05 05:33:45;;;;;;;2.80;1.60;;;;;;;;;;4996135;28;20595;-74
2023/11/05 05:36:12;;;;;;;4.93;1.73;;;;;;;;;;4983392;28;20232;-73
2023/11/05 05:38:40;;;;;;;2.90;1.60;;;;;;;;;;4999628;28;20228;-75
2023/11/05 05:41:08;;;;;;;3.10;1.80;;;;;;;;;;4998436;28;20287;-73
2023/11/05 05:43:36;;;;;;;4.37;1.80;;;;;;;;;;5015247;28;20263;-73
2023/11/05 05:46:04;;;;;;;5.63;1.80;;;;;;;;;;4992881;28;20220;-74
2023/11/05 05:48:32;;;;;;;3.27;1.60;;;;;;;;;;4996292;28;20228;-74
2023/11/05 05:50:59;;;;;;;3.67;1.60;;;;;;;;;;4995557;28;20302;-74
2023/11/05 05:53:29;;;;;;;2.00;1.50;;;;;;;;;;4997276;28;20216;-73
2023/11/05 05:55:55;;;;;;;3.20;1.53;;;;;;;;;;4997373;28;20292;-73
2023/11/05 05:58:24;;;;;;;2.40;1.60;;;;;;;;;;4986297;28;20300;-73
2023/11/05 06:00:52;;;;;;;2.17;1.40;;;;;;;;;;4995085;28;20271;-74
2023/11/05 06:03:24;;;;;;;2.83;1.43;;;;;;;;;;5016803;28;20216;-73
2023/11/05 06:05:52;;;;;;;4.37;1.63;;;;;;;;;;5013874;28;20213;-73
2023/11/05 06:08:17;;;;;;;8.53;1.70;;;;;;;;;;4968111;28;20605;-74
2023/11/05 06:10:43;;;;;;;4.87;1.80;;;;;;;;;;5013848;28;20221;-73
2023/11/05 06:13:09;;;;;;;4.40;1.73;;;;;;;;;;4978561;28;20232;-73
2023/11/05 06:15:34;;;;;;;2.20;1.63;;;;;;;;;;4980734;28;20227;-75
2023/11/05 06:18:02;;;;;;;7.00;1.57;;;;;;;;;;5014342;28;20228;-73
2023/11/05 06:20:30;;;;;;;3.73;1.70;;;;;;;;;;4997818;28;20592;-74
2023/11/05 06:23:00;;;;;;;3.13;1.50;;;;;;;;;;4997301;28;20228;-73
2023/11/05 06:25:30;;;;;;;5.17;2.00;;;;;;;;;;4986532;28;20224;-73
2023/11/05 06:27:58;;;;;;;2.60;1.50;;;;;;;;;;4983447;28;20236;-73
2023/11/05 06:30:24;;;;;;;4.17;1.80;;;;;;;;;;5000505;28;20698;-74
2023/11/05 06:32:54;;;;;;;2.53;1.73;;;;;;;;;;5016778;28;20231;-73
2023/11/05 06:35:20;;;;;;;5.70;1.97;;;;;;;;;;4978650;28;20610;-73
2023/11/05 06:37:48;;;;;;;5.33;2.00;;;;;;;;;;5018829;28;20713;-74
2023/11/05 06:40:16;;;;;;;4.60;2.73;;;;;;;;;;5003030;28;20220;-73
2023/11/05 06:42:44;;;;;;;6.27;3.73;;;;;;;;;;5003461;28;20216;-73
2023/11/05 06:45:10;;;;;;;7.10;5.27;;;;;;;;;;5010972;28;20250;-73
2023/11/05 06:47:35;;;;;;;5.03;4.13;;;;;;;;;;5015556;28;20230;-73
2023/11/05 06:50:01;;;;;;;5.57;1.87;;;;;;;;;;5032373;28;20224;-74
2023/11/05 06:52:28;;;;;;;4.47;2.20;;;;;;;;;;5015461;28;20251;-73
2023/11/05 06:54:56;;;;;;;5.30;4.37;;;;;;;;;;5004078;28;20223;-74
2023/11/05 06:57:24;;;;;;;7.30;3.10;;;;;;;;;;5000374;28;20331;-73
2023/11/05 06:59:52;;;;;;;4.73;2.30;;;;;;;;;;5011837;28;20718;-74
2023/11/05 07:02:20;;;;;;;5.13;2.00;;;;;;;;;;5001735;28;20220;-73
2023/11/05 07:04:48;;;;;;;6.67;2.30;;;;;;;;;;5003341;28;20227;-74
2023/11/05 07:07:16;;;;;;;4.83;2.20;;;;;;;;;;5016797;28;20232;-73
2023/11/05 07:09:48;;;;;;;5.03;3.00;;;;;;;;;;4999051;28;20252;-74
2023/11/05 07:12:14;;;;;;;4.03;2.00;;;;;;;;;;5029929;28;20220;-75
2023/11/05 07:14:42;;;;;;;5.03;2.13;;;;;;;;;;5016753;28;20224;-75
2023/11/05 07:17:12;;;;;;;6.23;4.67;;;;;;;;;;5014659;28;20236;-73
2023/11/05 07:19:40;;;;;;;4.93;2.97;;;;;;;;;;5029430;28;20220;-73
2023/11/05 07:22:07;;;;;;;5.07;2.67;;;;;;;;;;5014486;28;20225;-77
2023/11/05 07:24:34;;;;;;;5.63;2.20;;;;;;;;;;4995741;28;20221;-74
2023/11/05 07:27:02;;;;;;;5.63;2.43;;;;;;;;;;5011755;28;20220;-74
2023/11/05 07:29:35;;;;;;;2.30;1.77;;;;;;;;;;4997885;28;20581;-73
2023/11/05 07:32:04;;;;;;;4.13;1.90;;;;;;;;;;4988061;28;20216;-74
2023/11/05 07:34:30;;;;;;;4.43;1.90;;;;;;;;;;4998138;28;20634;-74
2023/11/05 07:36:57;;;;;;;4.23;1.80;;;;;;;;;;5015155;28;20217;-74
2023/11/05 07:39:24;;;;;;;5.10;1.70;;;;;;;;;;5017242;28;20224;-74
2023/11/05 07:41:55;;;;;;;6.67;1.90;;;;;;;;;;5014617;28;20213;-73
2023/11/05 07:44:25;;;;;;;6.07;1.97;;;;;;;;;;5014697;28;20223;-73
2023/11/05 07:46:56;;;;;;;4.63;1.50;;;;;;;;;;5005892;28;20725;-73
2023/11/05 07:49:22;;;;;;;3.93;1.50;;;;;;;;;;5013995;28;20779;-73
2023/11/05 07:51:52;;;;;;;3.07;1.53;;;;;;;;;;5032730;28;20224;-73
2023/11/05 07:54:22;;;;;;;5.00;2.00;;;;;;;;;;4998060;28;20220;-74
2023/11/05 07:56:53;;;;;;;3.63;1.97;;;;;;;;;;5016639;28;20219;-73
2023/11/05 07:59:19;;;;;;;2.93;1.60;;;;;;;;;;5010735;28;20639;-73
2023/11/05 08:01:47;;;;;;;3.37;1.57;;;;;;;;;;5012496;28;20308;-73
2023/11/05 08:04:16;;;;;;;3.97;1.50;;;;;;;;;;4973853;28;20278;-73
2023/11/05 08:06:43;;;;;;;3.97;1.40;;;;;;;;;;5005144;28;20233;-73
2023/11/05 08:09:08;;;;;;;3.03;1.30;;;;;;;;;;5030707;28;20224;-75
2023/11/05 08:11:43;;;;;;;3.80;1.20;;;;;;;;;;5000237;28;20231;-74
2023/11/05 08:14:11;;;;;;;2.50;1.37;;;;;;;;;;5000567;28;20228;-74
2023/11/05 08:16:39;;;;;;;2.67;1.20;;;;;;;;;;5004228;28;20227;-75
2023/11/05 08:19:05;;;;;;;3.50;1.67;;;;;;;;;;5013892;28;20760;-74
2023/11/05 08:21:33;;;;;;;9.13;2.00;;;;;;;;;;4991531;28;20216;-74
2023/11/05 08:23:58;;;;;;;3.80;1.70;;;;;;;;;;5005894;28;20303;-73
2023/11/05 08:26:26;;;;;;;5.07;1.90;;;;;;;;;;4985000;28;20641;-74
2023/11/05 08:28:54;;;;;;;4.70;2.10;;;;;;;;;;5011352;28;20684;-73
2023/11/05 08:31:22;;;;;;;3.57;1.90;;;;;;;;;;5014095;28;20205;-74
2023/11/05 08:33:50;;;;;;;4.13;1.70;;;;;;;;;;5016679;28;20231;-74
2023/11/05 08:36:15;;;;;;;3.83;1.83;;;;;;;;;;5011720;28;20351;-74
2023/11/05 08:38:43;;;;;;;2.67;1.60;;;;;;;;;;5009904;28;20664;-74
2023/11/05 08:41:14;;;;;;;3.10;1.70;;;;;;;;;;4998909;28;20220;-74
2023/11/05 08:43:43;;;;;;;5.07;1.70;;;;;;;;;;4999190;28;20228;-74
2023/11/05 08:46:11;;;;;;;4.13;1.90;;;;;;;;;;5012148;28;20307;-74
2023/11/05 08:48:44;;;;;;;2.23;1.93;;;;;;;;;;4997424;28;20323;-74
2023/11/05 08:51:09;;;;;;;5.50;1.70;;;;;;;;;;5027732;28;20314;-74
2023/11/05 08:53:35;;;;;;;3.07;1.70;;;;;;;;;;5012592;28;20228;-74
2023/11/05 08:56:00;;;;;;;2.23;1.50;;;;;;;;;;5019004;28;20227;-74
2023/11/05 08:58:26;;;;;;;3.47;2.10;;;;;;;;;;5000338;28;20220;-74
2023/11/05 09:00:55;;;;;;;6.40;2.10;;;;;;;;;;4981552;28;20640;-74
2023/11/05 09:03:28;;;;;;;4.47;1.93;;;;;;;;;;4997912;28;20303;-74
2023/11/05 09:05:54;;;;;;;4.30;1.70;;;;;;;;;;5004349;28;20798;-74
2023/11/05 09:08:26;;;;;;;3.83;1.70;;;;;;;;;;4999676;28;20231;-74
2023/11/05 09:10:56;;;;;;;3.20;1.53;;;;;;;;;;5011976;28;20319;-74
2023/11/05 09:13:22;;;;;;;5.23;1.77;;;;;;;;;;4993439;28;20653;-74
2023/11/05 09:15:49;;;;;;;4.10;1.70;;;;;;;;;;4997042;28;20217;-74
2023/11/05 09:18:20;;;;;;;2.83;1.60;;;;;;;;;;5029166;28;20289;-74
2023/11/05 09:20:49;;;;;;;4.20;1.73;;;;;;;;;;5002789;28;20266;-74
2023/11/05 09:23:17;;;;;;;5.10;1.80;;;;;;;;;;4996604;28;20251;-74
2023/11/05 09:25:45;;;;;;;4.20;2.10;;;;;;;;;;4997947;28;20218;-75
2023/11/05 09:28:13;;;;;;;2.90;1.67;;;;;;;;;;4997391;28;20717;-74
2023/11/05 09:30:45;;;;;;;3.13;2.00;;;;;;;;;;5013548;28;20740;-74
2023/11/05 09:33:16;;;;;;;3.93;1.80;;;;;;;;;;5030936;28;20220;-74
2023/11/05 09:35:41;;;;;;;3.33;1.70;;;;;;;;;;5030265;28;20210;-74
2023/11/05 09:38:07;;;;;;;4.77;2.40;;;;;;;;;;5031670;28;20763;-75
2023/11/05 09:40:38;;;;;;;4.07;1.87;;;;;;;;;;4996281;28;20233;-74
2023/11/05 09:43:10;;;;;;;4.57;1.90;;;;;;;;;;4979457;28;20212;-74
2023/11/05 09:45:38;;;;;;;4.50;3.03;;;;;;;;;;4983535;28;20305;-74
2023/11/05 09:48:11;;;;;;;3.27;2.03;;;;;;;;;;5010788;28;20229;-74
2023/11/05 09:50:38;;;;;;;3.63;1.77;;;;;;;;;;4998414;28;20229;-74
2023/11/05 09:53:04;;;;;;;3.67;1.67;;;;;;;;;;4996974;28;20214;-75
2023/11/05 09:55:32;;;;;;;4.20;2.60;;;;;;;;;;5014574;28;20223;-74
2023/11/05 09:57:58;;;;;;;6.03;5.00;;;;;;;;;;5012719;28;20227;-74
2023/11/05 10:00:30;;;;;;;2.47;1.90;;;;;;;;;;5014950;28;20217;-74
2023/11/05 10:03:08;;;;;;;2.10;1.53;;;;;;;;;;4992336;28;20224;-74
2023/11/05 10:05:37;;;;;;;2.40;1.50;;;;;;;;;;5010098;28;20220;-74
2023/11/05 10:08:07;;;;;;;4.40;2.10;;;;;;;;;;4995933;28;20235;-74
2023/11/05 10:10:34;;;;;;;1.20;1.10;;;;;;;;;;4996605;28;20266;-74
2023/11/05 10:12:59;;;;;;;2.80;1.40;;;;;;;;;;4996576;28;20596;-74
2023/11/05 10:15:27;;;;;;;2.63;1.00;;;;;;;;;;4996108;28;20232;-74
2023/11/05 10:17:55;;;;;;;2.30;1.20;;;;;;;;;;4980626;28;20246;-74
2023/11/05 10:20:22;;;;;;;3.00;1.53;;;;;;;;;;5007993;28;20435;-74
2023/11/05 10:22:59;;;;;;;3.30;2.93;;;;;;;;;;4996036;28;20238;-75
2023/11/05 10:25:27;;;;;;;3.40;1.57;;;;;;;;;;4992703;28;20286;-75
2023/11/05 10:27:53;;;;;;;2.17;1.20;;;;;;;;;;4994543;28;20221;-74
2023/11/05 10:30:21;;;;;;;2.60;1.33;;;;;;;;;;4993824;28;20236;-74
2023/11/05 10:32:51;;;;;;;5.27;1.40;;;;;;;;;;4996521;28;20221;-74
2023/11/05 10:35:20;;;;;;;2.60;1.30;;;;;;;;;;4995542;28;20658;-74
2023/11/05 10:37:53;;;;;;;5.03;1.50;;;;;;;;;;4981456;28;20205;-74
2023/11/05 10:40:19;;;;;;;4.73;1.53;;;;;;;;;;4994929;28;20262;-73
2023/11/05 10:42:48;;;;;;;2.30;1.30;;;;;;;;;;5010416;28;20217;-74
2023/11/05 10:45:21;;;;;;;3.00;1.00;;;;;;;;;;4993329;28;20221;-74
2023/11/05 10:47:47;;;;;;;4.00;1.30;;;;;;;;;;4997294;28;20220;-75
2023/11/05 10:50:15;;;;;;;3.27;1.27;;;;;;;;;;4980376;28;20212;-75
2023/11/05 10:52:43;;;;;;;1.57;1.10;;;;;;;;;;4974470;28;20242;-74
2023/11/05 10:55:14;;;;;;;1.20;0.87;;;;;;;;;;5007179;28;20213;-74
2023/11/05 10:57:49;;;;;;;2.13;1.20;;;;;;;;;;4998545;28;20251;-74
2023/11/05 11:00:27;;;;;;;1.73;0.90;;;;;;;;;;4996317;28;20274;-74
2023/11/05 11:02:56;;;;;;;1.80;1.20;;;;;;;;;;5015735;28;20689;-75
2023/11/05 11:05:48;;;;;;;3.07;1.20;;;;;;;;;;4992267;28;20212;-74
2023/11/05 11:08:18;;;;;;;1.30;1.00;;;;;;;;;;4984738;28;20233;-75
2023/11/05 11:10:48;;;;;;;3.83;2.47;;;;;;;;;;5013399;28;20608;-75
2023/11/05 11:13:17;;;;;;;3.47;1.93;;;;;;;;;;4996951;28;20270;-74
2023/11/05 11:15:54;;;;;;;2.33;1.50;;;;;;;;;;5015617;28;20212;-75
2023/11/05 11:18:20;;;;;;;3.03;1.53;;;;;;;;;;5012755;28;20244;-74
2023/11/05 11:20:56;;;;;;;1.63;1.17;;;;;;;;;;4996527;28;20530;-74
2023/11/05 11:23:25;;;;;;;1.57;1.00;;;;;;;;;;4994162;28;21468;-75
2023/11/05 11:26:00;;;;;;;2.17;1.10;;;;;;;;;;4999790;28;20223;-74
2023/11/05 11:28:26;;;;;;;1.37;1.07;;;;;;;;;;5028816;28;20239;-74
2023/11/05 11:30:54;;;;;;;2.53;1.10;;;;;;;;;;5014577;28;20223;-74
2023/11/05 11:33:22;;;;;;;3.00;0.90;;;;;;;;;;4996672;28;20216;-74
2023/11/05 11:35:48;;;;;;;2.07;1.00;;;;;;;;;;4999215;28;20217;-74
2023/11/05 11:38:14;;;;;;;2.67;1.10;;;;;;;;;;4995798;28;20232;-74
2023/11/05 11:40:52;;;;;;;1.53;0.77;;;;;;;;;;5016971;28;20222;-74
2023/11/05 11:43:24;;;;;;;1.73;0.80;;;;;;;;;;5020221;28;20220;-74
2023/11/05 11:45:52;;;;;;;1.23;0.60;;;;;;;;;;5020150;28;20909;-74
2023/11/05 11:48:26;;;;;;;1.80;0.73;;;;;;;;;;5012643;28;20709;-74
2023/11/05 11:50:52;;;;;;;1.13;0.60;;;;;;;;;;4999022;28;20252;-74
2023/11/05 11:53:31;;;;;;;2.23;0.90;;;;;;;;;;5013154;28;20220;-74
2023/11/05 11:56:02;;;;;;;1.83;0.77;;;;;;;;;;5015657;28;20587;-74
2023/11/05 11:58:37;;;;;;;1.13;0.60;;;;;;;;;;5032625;28;20278;-74
2023/11/05 12:01:05;;;;;;;0.80;0.60;;;;;;;;;;4999122;28;20212;-74
2023/11/05 12:03:33;;;;;;;1.60;1.00;;;;;;;;;;5011573;28;20548;-74
2023/11/05 12:05:58;;;;;;;2.93;1.40;;;;;;;;;;4996608;28;20737;-76
2023/11/05 12:08:44;;;;;;;1.60;0.77;;;;;;;;;;5012921;28;20229;-74
2023/11/05 12:11:13;;;;;;;0.67;0.60;;;;;;;;;;4997670;28;20248;-75
2023/11/05 12:13:43;;;;;;;0.60;0.60;;;;;;;;;;5002603;28;20674;-75
2023/11/05 12:16:11;;;;;;;1.07;0.93;;;;;;;;;;5031386;28;20304;-75
2023/11/05 12:18:40;;;;;;;0.80;0.80;;;;;;;;;;4996284;28;20229;-75
2023/11/05 12:21:09;;;;;;;0.97;0.70;;;;;;;;;;5015621;28;20303;-75
2023/11/05 12:23:39;;;;;;;1.70;0.93;;;;;;;;;;5016326;28;20299;-75
2023/11/05 12:26:08;;;;;;;2.53;1.70;;;;;;;;;;5013485;28;20220;-76
2023/11/05 12:28:38;;;;;;;2.47;2.13;;;;;;;;;;4979103;28;20234;-74
2023/11/05 12:31:06;;;;;;;2.57;2.23;;;;;;;;;;5011069;28;20336;-74
2023/11/05 12:33:40;;;;;;;3.17;2.20;;;;;;;;;;4997362;28;20686;-73
2023/11/05 12:36:09;;;;;;;2.23;2.03;;;;;;;;;;5007963;28;20777;-74
2023/11/05 12:38:37;;;;;;;1.50;1.40;;;;;;;;;;5013916;28;20230;-73
2023/11/05 12:41:07;;;;;;;1.00;1.00;;;;;;;;;;5013591;28;20223;-73
2023/11/05 12:43:36;;;;;;;1.00;0.90;;;;;;;;;;5014173;28;20332;-73
2023/11/05 12:46:02;;;;;;;0.87;0.87;;;;;;;;;;5012471;28;20224;-73
2023/11/05 12:48:30;;;;;;;2.20;1.00;;;;;;;;;;4977541;28;20221;-73
2023/11/05 12:50:58;;;;;;;3.37;2.97;;;;;;;;;;5012933;28;20282;-74
2023/11/05 12:53:28;;;;;;;2.23;1.93;;;;;;;;;;4998433;28;20227;-74
2023/11/05 12:56:10;;;;;;;1.30;1.00;;;;;;;;;;5016069;28;20236;-73
2023/11/05 12:58:41;;;;;;;2.20;1.00;;;;;;;;;;4977821;28;20228;-73
2023/11/05 13:01:07;;;;;;;1.67;0.90;;;;;;;;;;4994567;28;20225;-73
2023/11/05 13:03:35;;;;;;;1.10;1.00;;;;;;;;;;5000238;28;20236;-74
2023/11/05 13:06:03;;;;;;;1.07;0.97;;;;;;;;;;5013894;28;20684;-73
2023/11/05 13:08:28;;;;;;;1.70;1.10;;;;;;;;;;4996970;28;20236;-73
2023/11/05 13:10:54;;;;;;;1.17;0.97;;;;;;;;;;4995622;28;20220;-73
2023/11/05 13:13:24;;;;;;;2.00;1.20;;;;;;;;;;5013012;28;20214;-72
2023/11/05 13:15:55;;;;;;;2.13;1.23;;;;;;;;;;4995734;28;20683;-73
2023/11/05 13:18:24;;;;;;;3.50;2.50;;;;;;;;;;4999594;28;20569;-73
2023/11/05 13:20:51;;;;;;;2.20;1.90;;;;;;;;;;5014655;28;20694;-74
2023/11/05 13:23:20;;;;;;;2.57;2.00;;;;;;;;;;5017435;28;20216;-73
2023/11/05 13:25:48;;;;;;;2.27;1.60;;;;;;;;;;5015069;28;20310;-72
2023/11/05 13:28:16;;;;;;;4.10;2.53;;;;;;;;;;4994860;28;20228;-73
2023/11/05 13:30:45;;;;;;;2.83;2.20;;;;;;;;;;5012920;28;20226;-73
2023/11/05 13:33:10;;;;;;;3.70;3.03;;;;;;;;;;5031042;28;20227;-73
2023/11/05 13:35:38;;;;;;;4.20;3.90;;;;;;;;;;5000763;28;20225;-72
2023/11/05 13:38:04;;;;;;;2.10;1.90;;;;;;;;;;5028812;28;20810;-73
2023/11/05 13:40:34;;;;;;;5.90;4.47;;;;;;;;;;4997236;28;20217;-73
2023/11/05 13:43:03;;;;;;;3.03;2.70;;;;;;;;;;4998824;28;20204;-73
2023/11/05 13:45:28;;;;;;;3.30;3.00;;;;;;;;;;5031822;28;20217;-72
2023/11/05 13:47:56;;;;;;;5.50;5.00;;;;;;;;;;4996272;28;20583;-72
2023/11/05 13:50:24;;;;;;;3.13;2.87;;;;;;;;;;4997884;28;20216;-72
2023/11/05 13:52:49;;;;;;;3.30;2.70;;;;;;;;;;5017530;28;20227;-73
2023/11/05 13:55:17;;;;;;;1.50;1.40;;;;;;;;;;5014131;28;20274;-73
2023/11/05 13:57:43;;;;;;;1.90;1.53;;;;;;;;;;5013216;28;20221;-71
2023/11/05 14:00:08;;;;;;;1.80;1.70;;;;;;;;;;4995740;28;20745;-73
2023/11/05 14:02:35;;;;;;;1.90;1.80;;;;;;;;;;4996057;28;20235;-72
2023/11/05 14:05:03;;;;;;;3.83;3.43;;;;;;;;;;4992866;28;20588;-73
2023/11/05 14:07:31;;;;;;;2.47;2.27;;;;;;;;;;4997317;28;20225;-72
2023/11/05 14:10:06;;;;;;;2.00;1.90;;;;;;;;;;4998297;28;20220;-73
2023/11/05 14:12:35;;;;;;;1.77;1.67;;;;;;;;;;5012138;28;20216;-73
2023/11/05 14:15:07;;;;;;;2.17;1.93;;;;;;;;;;5013889;28;20208;-73
2023/11/05 14:17:35;;;;;;;2.47;2.27;;;;;;;;;;4994668;28;20221;-73
2023/11/05 14:20:05;;;;;;;2.00;1.90;;;;;;;;;;5012961;28;20220;-73
2023/11/05 14:22:30;;;;;;;1.57;1.50;;;;;;;;;;5006621;28;20667;-73
2023/11/05 14:25:07;;;;;;;1.87;1.77;;;;;;;;;;5032260;28;20212;-74
2023/11/05 14:27:32;;;;;;;2.73;1.70;;;;;;;;;;4995236;28;20229;-72
2023/11/05 14:30:00;;;;;;;2.03;1.67;;;;;;;;;;5014179;28;20228;-73
2023/11/05 14:32:26;;;;;;;2.73;1.93;;;;;;;;;;5026181;28;20270;-72
2023/11/05 14:34:58;;;;;;;2.03;1.60;;;;;;;;;;4982637;28;20208;-72
2023/11/05 14:37:28;;;;;;;2.00;1.80;;;;;;;;;;5011824;28;20785;-72
2023/11/05 14:39:56;;;;;;;1.50;1.40;;;;;;;;;;5010095;28;20244;-73
2023/11/05 14:42:27;;;;;;;1.70;1.43;;;;;;;;;;5009165;28;20288;-73
2023/11/05 14:44:55;;;;;;;1.37;1.27;;;;;;;;;;5029297;28;20222;-73
2023/11/05 14:47:23;;;;;;;2.70;1.70;;;;;;;;;;5011657;28;20274;-74
2023/11/05 14:49:51;;;;;;;1.67;1.50;;;;;;;;;;4998797;28;20248;-73
2023/11/05 14:52:18;;;;;;;2.80;1.47;;;;;;;;;;5017816;28;20228;-72
2023/11/05 14:54:44;;;;;;;1.70;1.60;;;;;;;;;;5016039;28;20710;-74